createdAt,value
2023-05-09T00:00:35.324Z,1012.41
2023-05-09T00:01:35.310Z,1012.36
2023-05-09T00:02:35.351Z,1012.39
2023-05-09T00:03:35.292Z,1012.35
2023-05-09T00:04:35.374Z,1012.34
2023-05-09T00:05:35.251Z,1012.33
2023-05-09T00:06:35.276Z,1012.28
2023-05-09T00:07:35.240Z,1012.24
2023-05-09T00:08:35.217Z,1012.27
2023-05-09T00:09:35.228Z,1012.24
2023-05-09T00:10:35.190Z,1012.23
2023-05-09T00:11:35.206Z,1012.22
2023-05-09T00:12:35.172Z,1012.19
2023-05-09T00:13:35.164Z,1012.19
2023-05-09T00:14:35.278Z,1012.16
2023-05-09T00:15:35.153Z,1012.17
2023-05-09T00:16:35.173Z,1012.18
2023-05-09T00:17:35.158Z,1012.18
2023-05-09T00:18:35.116Z,1012.16
2023-05-09T00:19:35.111Z,1012.12
2023-05-09T00:20:35.100Z,1012.15
2023-05-09T00:21:35.078Z,1012.19
2023-05-09T00:22:35.090Z,1012.15
2023-05-09T00:23:35.068Z,1012.12
2023-05-09T00:24:35.036Z,1012.14
2023-05-09T00:25:35.072Z,1012.10
2023-05-09T00:26:35.026Z,1012.11
2023-05-09T00:27:35.010Z,1012.12
2023-05-09T00:28:35.029Z,1012.09
2023-05-09T00:29:34.985Z,1012.07
2023-05-09T00:30:35.087Z,1012.04
2023-05-09T00:31:35.021Z,1012.02
2023-05-09T00:32:34.988Z,1012.01
2023-05-09T00:33:34.949Z,1011.95
2023-05-09T00:34:34.943Z,1011.99
2023-05-09T00:35:34.941Z,1011.97
2023-05-09T00:36:34.933Z,1011.95
2023-05-09T00:37:34.921Z,1011.99
2023-05-09T00:38:34.903Z,1011.97
2023-05-09T00:39:34.908Z,1011.96
2023-05-09T00:40:34.879Z,1011.96
2023-05-09T00:41:34.878Z,1011.96
2023-05-09T00:42:34.867Z,1011.96
2023-05-09T00:43:34.830Z,1011.95
2023-05-09T00:44:34.835Z,1011.93
2023-05-09T00:45:34.837Z,1011.90
2023-05-09T00:46:34.950Z,1011.89
2023-05-09T00:47:34.868Z,1011.90
2023-05-09T00:48:34.804Z,1011.89
2023-05-09T00:49:34.780Z,1011.87
2023-05-09T00:50:34.748Z,1011.85
2023-05-09T00:51:34.746Z,1011.83
2023-05-09T00:52:34.775Z,1011.81
2023-05-09T00:53:34.749Z,1011.79
2023-05-09T00:54:34.720Z,1011.77
2023-05-09T00:55:34.702Z,1011.74
2023-05-09T00:56:34.684Z,1011.74
2023-05-09T00:57:34.691Z,1011.76
2023-05-09T00:58:34.693Z,1011.77
2023-05-09T00:59:34.676Z,1011.75
2023-05-09T01:00:34.641Z,1011.76
2023-05-09T01:01:34.674Z,1011.77
2023-05-09T01:02:34.829Z,1011.80
2023-05-09T01:03:34.796Z,1011.76
2023-05-09T01:04:34.615Z,1011.80
2023-05-09T01:05:34.617Z,1011.79
2023-05-09T01:06:34.607Z,1011.76
2023-05-09T01:07:34.581Z,1011.75
2023-05-09T01:08:34.576Z,1011.71
2023-05-09T01:09:34.568Z,1011.72
2023-05-09T01:10:34.553Z,1011.72
2023-05-09T01:11:34.544Z,1011.69
2023-05-09T01:12:34.519Z,1011.71
2023-05-09T01:13:34.522Z,1011.74
2023-05-09T01:14:34.498Z,1011.72
2023-05-09T01:15:34.557Z,1011.68
2023-05-09T01:16:34.481Z,1011.70
2023-05-09T01:17:34.573Z,1011.66
2023-05-09T01:18:34.588Z,1011.63
2023-05-09T01:19:34.452Z,1011.62
2023-05-09T01:20:34.472Z,1011.62
2023-05-09T01:21:34.438Z,1011.61
2023-05-09T01:22:34.485Z,1011.60
2023-05-09T01:23:34.410Z,1011.59
2023-05-09T01:24:34.380Z,1011.57
2023-05-09T01:25:34.388Z,1011.57
2023-05-09T01:26:34.394Z,1011.58
2023-05-09T01:27:34.462Z,1011.58
2023-05-09T01:28:34.339Z,1011.56
2023-05-09T01:29:34.345Z,1011.55
2023-05-09T01:30:34.323Z,1011.57
2023-05-09T01:31:34.328Z,1011.59
2023-05-09T01:32:34.353Z,1011.61
2023-05-09T01:33:34.293Z,1011.58
2023-05-09T01:34:34.419Z,1011.61
2023-05-09T01:35:34.273Z,1011.59
2023-05-09T01:36:34.244Z,1011.58
2023-05-09T01:37:34.301Z,1011.60
2023-05-09T01:38:34.224Z,1011.56
2023-05-09T01:39:34.232Z,1011.54
2023-05-09T01:40:34.230Z,1011.55
2023-05-09T01:41:34.240Z,1011.54
2023-05-09T01:42:34.179Z,1011.58
2023-05-09T01:43:34.203Z,1011.55
2023-05-09T01:44:34.170Z,1011.55
2023-05-09T01:45:34.177Z,1011.59
2023-05-09T01:46:34.180Z,1011.55
2023-05-09T01:47:34.176Z,1011.57
2023-05-09T01:48:34.111Z,1011.55
2023-05-09T01:49:34.137Z,1011.52
2023-05-09T01:50:34.231Z,1011.50
2023-05-09T01:51:34.158Z,1011.49
2023-05-09T01:52:34.101Z,1011.49
2023-05-09T01:53:34.082Z,1011.50
2023-05-09T01:54:34.068Z,1011.51
2023-05-09T01:55:34.049Z,1011.49
2023-05-09T01:56:34.036Z,1011.48
2023-05-09T01:57:34.027Z,1011.47
2023-05-09T01:58:34.046Z,1011.47
2023-05-09T01:59:34.004Z,1011.47
2023-05-09T02:00:34.003Z,1011.44
2023-05-09T02:01:33.979Z,1011.41
2023-05-09T02:02:34.035Z,1011.40
2023-05-09T02:03:33.952Z,1011.39
2023-05-09T02:04:33.979Z,1011.39
2023-05-09T02:05:33.921Z,1011.40
2023-05-09T02:06:34.054Z,1011.43
2023-05-09T02:07:33.911Z,1011.39
2023-05-09T02:08:33.915Z,1011.44
2023-05-09T02:09:33.897Z,1011.43
2023-05-09T02:10:33.858Z,1011.39
2023-05-09T02:11:33.866Z,1011.40
2023-05-09T02:12:33.839Z,1011.44
2023-05-09T02:13:33.847Z,1011.43
2023-05-09T02:14:33.862Z,1011.42
2023-05-09T02:15:33.826Z,1011.40
2023-05-09T02:16:33.866Z,1011.39
2023-05-09T02:17:33.809Z,1011.39
2023-05-09T02:18:33.789Z,1011.37
2023-05-09T02:19:33.785Z,1011.34
2023-05-09T02:20:33.764Z,1011.37
2023-05-09T02:21:33.768Z,1011.39
2023-05-09T02:22:33.851Z,1011.38
2023-05-09T02:23:33.738Z,1011.38
2023-05-09T02:24:33.710Z,1011.36
2023-05-09T02:25:33.716Z,1011.32
2023-05-09T02:26:33.683Z,1011.32
2023-05-09T02:27:33.689Z,1011.33
2023-05-09T02:28:33.680Z,1011.29
2023-05-09T02:29:33.655Z,1011.27
2023-05-09T02:30:33.683Z,1011.28
2023-05-09T02:31:33.722Z,1011.32
2023-05-09T02:32:33.655Z,1011.33
2023-05-09T02:33:33.624Z,1011.28
2023-05-09T02:34:33.612Z,1011.29
2023-05-09T02:35:33.627Z,1011.30
2023-05-09T02:36:33.601Z,1011.30
2023-05-09T02:37:33.563Z,1011.30
2023-05-09T02:38:33.684Z,1011.28
2023-05-09T02:39:33.554Z,1011.30
2023-05-09T02:40:33.585Z,1011.27
2023-05-09T02:41:33.563Z,1011.24
2023-05-09T02:42:33.556Z,1011.29
2023-05-09T02:43:33.507Z,1011.18
2023-05-09T02:44:33.485Z,1011.20
2023-05-09T02:45:33.489Z,1011.13
2023-05-09T02:46:33.537Z,1011.15
2023-05-09T02:47:33.503Z,1011.17
2023-05-09T02:48:33.453Z,1011.14
2023-05-09T02:49:33.424Z,1011.17
2023-05-09T02:50:33.431Z,1011.16
2023-05-09T02:51:33.446Z,1011.17
2023-05-09T02:52:33.412Z,1011.14
2023-05-09T02:53:33.389Z,1011.14
2023-05-09T02:54:33.504Z,1011.12
2023-05-09T02:55:33.388Z,1011.07
2023-05-09T02:56:33.365Z,1011.07
2023-05-09T02:57:33.372Z,1011.13
2023-05-09T02:58:33.336Z,1011.07
2023-05-09T02:59:33.350Z,1011.09
2023-05-09T03:00:33.315Z,1011.10
2023-05-09T03:01:33.330Z,1011.08
2023-05-09T03:02:33.372Z,1011.07
2023-05-09T03:03:33.366Z,1011.09
2023-05-09T03:04:33.260Z,1011.08
2023-05-09T03:05:33.267Z,1011.08
2023-05-09T03:06:33.236Z,1011.03
2023-05-09T03:07:33.240Z,1011.02
2023-05-09T03:08:33.246Z,1010.97
2023-05-09T03:09:33.247Z,1010.97
2023-05-09T03:10:33.315Z,1011.00
2023-05-09T03:11:33.231Z,1011.01
2023-05-09T03:12:33.190Z,1010.99
2023-05-09T03:13:33.177Z,1011.00
2023-05-09T03:14:33.183Z,1010.98
2023-05-09T03:15:33.142Z,1010.99
2023-05-09T03:16:33.145Z,1010.99
2023-05-09T03:17:33.136Z,1010.97
2023-05-09T03:18:33.117Z,1010.99
2023-05-09T03:19:33.099Z,1010.94
2023-05-09T03:20:33.117Z,1010.96
2023-05-09T03:21:33.088Z,1010.89
2023-05-09T03:22:33.076Z,1010.90
2023-05-09T03:23:33.052Z,1010.87
2023-05-09T03:24:33.042Z,1010.89
2023-05-09T03:25:33.068Z,1010.87
2023-05-09T03:26:33.153Z,1010.87
2023-05-09T03:27:33.086Z,1010.86
2023-05-09T03:28:32.999Z,1010.89
2023-05-09T03:29:32.987Z,1010.84
2023-05-09T03:30:33.010Z,1010.83
2023-05-09T03:31:33.101Z,1010.83
2023-05-09T03:32:33.003Z,1010.84
2023-05-09T03:33:32.957Z,1010.83
2023-05-09T03:34:32.931Z,1010.87
2023-05-09T03:35:32.934Z,1010.85
2023-05-09T03:36:32.946Z,1010.81
2023-05-09T03:37:32.914Z,1010.86
2023-05-09T03:38:32.903Z,1010.85
2023-05-09T03:39:32.900Z,1010.82
2023-05-09T03:40:32.881Z,1010.82
2023-05-09T03:41:32.874Z,1010.79
2023-05-09T03:42:32.996Z,1010.79
2023-05-09T03:43:32.843Z,1010.80
2023-05-09T03:44:32.838Z,1010.79
2023-05-09T03:45:32.838Z,1010.78
2023-05-09T03:46:32.825Z,1010.76
2023-05-09T03:47:32.865Z,1010.75
2023-05-09T03:48:32.837Z,1010.73
2023-05-09T03:49:32.779Z,1010.68
2023-05-09T03:50:32.768Z,1010.71
2023-05-09T03:51:32.747Z,1010.71
2023-05-09T03:52:32.743Z,1010.67
2023-05-09T03:53:32.738Z,1010.68
2023-05-09T03:54:32.720Z,1010.65
2023-05-09T03:55:32.717Z,1010.66
2023-05-09T03:56:32.719Z,1010.66
2023-05-09T03:57:32.728Z,1010.62
2023-05-09T03:58:32.784Z,1010.62
2023-05-09T03:59:32.741Z,1010.58
2023-05-09T04:00:32.643Z,1010.58
2023-05-09T04:01:32.647Z,1010.62
2023-05-09T04:02:32.730Z,1010.62
2023-05-09T04:03:32.745Z,1010.59
2023-05-09T04:04:32.603Z,1010.61
2023-05-09T04:05:32.590Z,1010.59
2023-05-09T04:06:32.593Z,1010.58
2023-05-09T04:07:32.598Z,1010.54
2023-05-09T04:08:32.579Z,1010.56
2023-05-09T04:09:32.545Z,1010.54
2023-05-09T04:10:32.550Z,1010.52
2023-05-09T04:11:32.535Z,1010.53
2023-05-09T04:12:32.512Z,1010.51
2023-05-09T04:13:32.536Z,1010.49
2023-05-09T04:14:32.626Z,1010.47
2023-05-09T04:15:32.485Z,1010.46
2023-05-09T04:16:32.466Z,1010.43
2023-05-09T04:17:32.470Z,1010.41
2023-05-09T04:18:32.468Z,1010.40
2023-05-09T04:19:32.438Z,1010.39
2023-05-09T04:20:32.425Z,1010.37
2023-05-09T04:21:32.410Z,1010.37
2023-05-09T04:22:32.443Z,1010.37
2023-05-09T04:23:32.410Z,1010.35
2023-05-09T04:24:32.426Z,1010.35
2023-05-09T04:25:32.373Z,1010.34
2023-05-09T04:26:32.360Z,1010.35
2023-05-09T04:27:32.340Z,1010.37
2023-05-09T04:28:32.333Z,1010.40
2023-05-09T04:29:32.352Z,1010.38
2023-05-09T04:30:32.487Z,1010.33
2023-05-09T04:31:32.359Z,1010.35
2023-05-09T04:32:32.324Z,1010.35
2023-05-09T04:33:32.281Z,1010.34
2023-05-09T04:34:32.419Z,1010.35
2023-05-09T04:35:32.269Z,1010.35
2023-05-09T04:36:32.245Z,1010.31
2023-05-09T04:37:32.248Z,1010.34
2023-05-09T04:38:32.245Z,1010.34
2023-05-09T04:39:32.238Z,1010.32
2023-05-09T04:40:32.230Z,1010.32
2023-05-09T04:41:32.202Z,1010.34
2023-05-09T04:42:32.209Z,1010.29
2023-05-09T04:43:32.188Z,1010.34
2023-05-09T04:44:32.157Z,1010.32
2023-05-09T04:45:32.169Z,1010.31
2023-05-09T04:46:32.265Z,1010.33
2023-05-09T04:47:32.153Z,1010.28
2023-05-09T04:48:32.115Z,1010.28
2023-05-09T04:49:32.114Z,1010.29
2023-05-09T04:50:32.102Z,1010.27
2023-05-09T04:51:32.103Z,1010.25
2023-05-09T04:52:32.082Z,1010.25
2023-05-09T04:53:32.074Z,1010.29
2023-05-09T04:54:32.048Z,1010.25
2023-05-09T04:55:32.030Z,1010.28
2023-05-09T04:56:32.061Z,1010.27
2023-05-09T04:57:32.002Z,1010.30
2023-05-09T04:58:32.003Z,1010.29
2023-05-09T04:59:31.985Z,1010.28
2023-05-09T05:00:31.992Z,1010.28
2023-05-09T05:01:31.989Z,1010.32
2023-05-09T05:02:32.143Z,1010.27
2023-05-09T05:03:31.954Z,1010.31
2023-05-09T05:04:31.998Z,1010.29
2023-05-09T05:05:33.658Z,1010.32
2023-05-09T05:06:31.951Z,1010.28
2023-05-09T05:07:31.936Z,1010.31
2023-05-09T05:08:31.906Z,1010.26
2023-05-09T05:09:31.894Z,1010.26
2023-05-09T05:10:31.873Z,1010.25
2023-05-09T05:11:31.874Z,1010.27
2023-05-09T05:12:31.860Z,1010.26
2023-05-09T05:13:31.833Z,1010.21
2023-05-09T05:14:31.845Z,1010.20
2023-05-09T05:15:31.894Z,1010.19
2023-05-09T05:16:31.811Z,1010.19
2023-05-09T05:17:31.826Z,1010.19
2023-05-09T05:18:31.927Z,1010.17
2023-05-09T05:19:31.771Z,1010.17
2023-05-09T05:20:31.769Z,1010.12
2023-05-09T05:21:31.745Z,1010.10
2023-05-09T05:22:32.851Z,1010.09
2023-05-09T05:23:31.730Z,1010.05
2023-05-09T05:24:31.721Z,1010.05
2023-05-09T05:25:31.737Z,1009.97
2023-05-09T05:26:31.688Z,1009.99
2023-05-09T05:27:31.667Z,1009.97
2023-05-09T05:28:31.693Z,1009.98
2023-05-09T05:29:31.654Z,1010.00
2023-05-09T05:30:34.056Z,1009.99
2023-05-09T05:31:31.687Z,1009.95
2023-05-09T05:32:31.651Z,1010.00
2023-05-09T05:33:31.602Z,1010.00
2023-05-09T05:34:31.641Z,1009.98
2023-05-09T05:35:31.596Z,1010.00
2023-05-09T05:36:31.569Z,1009.96
2023-05-09T05:37:31.557Z,1009.94
2023-05-09T05:38:31.562Z,1009.89
2023-05-09T05:39:31.549Z,1009.86
2023-05-09T05:40:31.536Z,1009.87
2023-05-09T05:41:31.523Z,1009.86
2023-05-09T05:42:31.515Z,1009.87
2023-05-09T05:43:31.482Z,1009.86
2023-05-09T05:44:31.474Z,1009.84
2023-05-09T05:45:31.552Z,1009.84
2023-05-09T05:46:31.453Z,1009.88
2023-05-09T05:47:31.482Z,1009.86
2023-05-09T05:48:31.449Z,1009.88
2023-05-09T05:49:31.426Z,1009.82
2023-05-09T05:50:31.551Z,1009.83
2023-05-09T05:51:31.459Z,1009.77
2023-05-09T05:52:31.399Z,1009.78
2023-05-09T05:53:32.709Z,1009.78
2023-05-09T05:54:31.372Z,1009.79
2023-05-09T05:55:31.364Z,1009.81
2023-05-09T05:56:31.351Z,1009.76
2023-05-09T05:57:31.346Z,1009.78
2023-05-09T05:58:31.316Z,1009.78
2023-05-09T05:59:31.335Z,1009.78
2023-05-09T06:00:31.314Z,1009.75
2023-05-09T06:01:31.302Z,1009.76
2023-05-09T06:02:31.419Z,1009.71
2023-05-09T06:03:31.479Z,1009.68
2023-05-09T06:04:31.267Z,1009.66
2023-05-09T06:05:31.258Z,1009.68
2023-05-09T06:06:31.363Z,1009.72
2023-05-09T06:07:31.268Z,1009.65
2023-05-09T06:08:31.226Z,1009.69
2023-05-09T06:09:31.217Z,1009.70
2023-05-09T06:10:31.193Z,1009.69
2023-05-09T06:11:31.175Z,1009.68
2023-05-09T06:12:31.197Z,1009.66
2023-05-09T06:13:31.161Z,1009.64
2023-05-09T06:14:31.154Z,1009.60
2023-05-09T06:15:31.175Z,1009.60
2023-05-09T06:16:31.148Z,1009.61
2023-05-09T06:17:31.156Z,1009.59
2023-05-09T06:18:31.118Z,1009.59
2023-05-09T06:19:31.076Z,1009.58
2023-05-09T06:20:31.083Z,1009.55
2023-05-09T06:21:31.054Z,1009.56
2023-05-09T06:22:31.186Z,1009.55
2023-05-09T06:23:31.044Z,1009.55
2023-05-09T06:24:35.731Z,1009.56
2023-05-09T06:25:32.024Z,1009.59
2023-05-09T06:26:31.025Z,1009.61
2023-05-09T06:27:31.007Z,1009.61
2023-05-09T06:28:31.314Z,1009.61
2023-05-09T06:29:31.022Z,1009.64
2023-05-09T06:30:30.958Z,1009.61
2023-05-09T06:32:30.969Z,1009.60
2023-05-09T06:33:30.934Z,1009.55
2023-05-09T06:34:30.962Z,1009.52
2023-05-09T06:35:30.921Z,1009.51
2023-05-09T06:36:30.887Z,1009.50
2023-05-09T06:37:30.937Z,1009.52
2023-05-09T06:38:31.001Z,1009.43
2023-05-09T06:39:30.871Z,1009.46
2023-05-09T06:40:30.874Z,1009.44
2023-05-09T06:41:30.849Z,1009.45
2023-05-09T06:42:30.830Z,1009.41
2023-05-09T06:43:30.822Z,1009.37
2023-05-09T06:44:30.807Z,1009.39
2023-05-09T06:45:30.867Z,1009.33
2023-05-09T06:46:30.879Z,1009.35
2023-05-09T06:47:30.857Z,1009.37
2023-05-09T06:48:30.774Z,1009.38
2023-05-09T06:49:30.769Z,1009.37
2023-05-09T06:50:32.784Z,1009.32
2023-05-09T06:51:30.733Z,1009.38
2023-05-09T06:52:30.748Z,1009.30
2023-05-09T06:53:30.709Z,1009.29
2023-05-09T06:54:30.815Z,1009.31
2023-05-09T06:55:30.699Z,1009.34
2023-05-09T06:56:30.691Z,1009.24
2023-05-09T06:57:30.656Z,1009.22
2023-05-09T06:58:30.692Z,1009.24
2023-05-09T06:59:30.658Z,1009.20
2023-05-09T07:00:30.646Z,1009.17
2023-05-09T07:01:30.671Z,1009.16
2023-05-09T07:02:30.653Z,1009.16
2023-05-09T07:03:30.593Z,1009.08
2023-05-09T07:04:30.599Z,1009.08
2023-05-09T07:05:30.615Z,1009.10
2023-05-09T07:06:30.561Z,1009.10
2023-05-09T07:07:30.583Z,1009.06
2023-05-09T07:08:30.552Z,1009.06
2023-05-09T07:09:30.542Z,1009.03
2023-05-09T07:10:30.784Z,1008.98
2023-05-09T07:11:30.516Z,1008.98
2023-05-09T07:12:30.504Z,1008.91
2023-05-09T07:13:30.485Z,1008.95
2023-05-09T07:14:30.507Z,1009.01
2023-05-09T07:15:41.224Z,1008.92
2023-05-09T07:16:31.503Z,1008.93
2023-05-09T07:17:30.510Z,1008.89
2023-05-09T07:18:30.440Z,1008.92
2023-05-09T07:19:30.429Z,1008.84
2023-05-09T07:20:30.405Z,1008.86
2023-05-09T07:21:30.392Z,1008.83
2023-05-09T07:22:32.126Z,1008.92
2023-05-09T07:23:30.382Z,1008.76
2023-05-09T07:24:30.380Z,1008.79
2023-05-09T07:25:30.358Z,1008.72
2023-05-09T07:26:30.478Z,1008.78
2023-05-09T07:27:30.323Z,1008.79
2023-05-09T07:28:30.351Z,1008.74
2023-05-09T07:29:30.314Z,1008.78
2023-05-09T07:30:30.293Z,1008.77
2023-05-09T07:31:30.325Z,1008.77
2023-05-09T07:32:30.288Z,1008.74
2023-05-09T07:33:30.271Z,1008.72
2023-05-09T07:34:30.254Z,1008.77
2023-05-09T07:35:30.242Z,1008.78
2023-05-09T07:36:30.248Z,1008.74
2023-05-09T07:37:30.234Z,1008.71
2023-05-09T07:38:30.219Z,1008.76
2023-05-09T07:39:30.199Z,1008.76
2023-05-09T07:40:30.187Z,1008.69
2023-05-09T07:41:30.181Z,1008.68
2023-05-09T07:42:30.254Z,1008.66
2023-05-09T07:43:30.158Z,1008.66
2023-05-09T07:44:30.167Z,1008.69
2023-05-09T07:45:30.162Z,1008.67
2023-05-09T07:46:30.175Z,1008.70
2023-05-09T07:47:30.166Z,1008.72
2023-05-09T07:48:30.101Z,1008.67
2023-05-09T07:49:30.090Z,1008.57
2023-05-09T07:50:30.108Z,1008.63
2023-05-09T07:51:30.068Z,1008.64
2023-05-09T07:52:30.048Z,1008.68
2023-05-09T07:53:30.030Z,1008.64
2023-05-09T07:54:30.067Z,1008.62
2023-05-09T07:55:30.058Z,1008.54
2023-05-09T07:56:29.998Z,1008.52
2023-05-09T07:57:29.997Z,1008.56
2023-05-09T07:58:30.026Z,1008.55
2023-05-09T07:59:29.972Z,1008.50
2023-05-09T08:00:29.975Z,1008.51
2023-05-09T08:01:29.954Z,1008.53
2023-05-09T08:02:30.023Z,1008.48
2023-05-09T08:03:30.015Z,1008.43
2023-05-09T08:04:29.992Z,1008.51
2023-05-09T08:05:29.894Z,1008.50
2023-05-09T08:06:29.936Z,1008.50
2023-05-09T08:07:29.875Z,1008.40
2023-05-09T08:08:29.869Z,1008.47
2023-05-09T08:09:29.847Z,1008.45
2023-05-09T08:10:29.843Z,1008.50
2023-05-09T08:11:29.855Z,1008.43
2023-05-09T08:12:29.837Z,1008.43
2023-05-09T08:13:29.901Z,1008.40
2023-05-09T08:14:29.978Z,1008.38
2023-05-09T08:15:29.809Z,1008.36
2023-05-09T08:16:29.856Z,1008.26
2023-05-09T08:17:29.912Z,1008.26
2023-05-09T08:18:29.784Z,1008.25
2023-05-09T08:19:29.765Z,1008.17
2023-05-09T08:20:29.756Z,1008.24
2023-05-09T08:21:29.745Z,1008.17
2023-05-09T08:22:29.756Z,1008.25
2023-05-09T08:23:29.720Z,1008.23
2023-05-09T08:24:29.734Z,1008.16
2023-05-09T08:25:29.731Z,1008.19
2023-05-09T08:26:29.683Z,1008.17
2023-05-09T08:27:29.676Z,1008.11
2023-05-09T08:28:29.659Z,1008.11
2023-05-09T08:29:29.646Z,1008.01
2023-05-09T08:30:29.784Z,1008.09
2023-05-09T08:31:29.641Z,1008.06
2023-05-09T08:32:29.650Z,1008.08
2023-05-09T08:33:29.609Z,1008.06
2023-05-09T08:34:29.657Z,1008.05
2023-05-09T08:35:29.599Z,1008.07
2023-05-09T08:36:29.565Z,1008.02
2023-05-09T08:37:29.559Z,1008.00
2023-05-09T08:38:29.530Z,1008.03
2023-05-09T08:39:29.524Z,1008.05
2023-05-09T08:40:29.537Z,1007.99
2023-05-09T08:41:29.546Z,1007.94
2023-05-09T08:42:29.493Z,1007.95
2023-05-09T08:43:29.507Z,1007.90
2023-05-09T08:44:29.478Z,1007.96
2023-05-09T08:45:29.487Z,1007.93
2023-05-09T08:46:29.613Z,1007.96
2023-05-09T08:47:29.456Z,1007.90
2023-05-09T08:48:29.450Z,1007.89
2023-05-09T08:49:29.441Z,1007.95
2023-05-09T08:50:29.428Z,1007.84
2023-05-09T08:51:29.404Z,1007.85
2023-05-09T08:52:29.389Z,1007.78
2023-05-09T08:53:29.375Z,1007.81
2023-05-09T08:54:29.377Z,1007.75
2023-05-09T08:55:29.365Z,1007.66
2023-05-09T08:56:29.344Z,1007.69
2023-05-09T08:57:29.360Z,1007.81
2023-05-09T08:58:29.323Z,1007.78
2023-05-09T08:59:29.304Z,1007.74
2023-05-09T09:00:29.324Z,1007.73
2023-05-09T09:01:29.318Z,1007.80
2023-05-09T09:02:29.500Z,1007.87
2023-05-09T09:03:29.284Z,1007.74
2023-05-09T09:04:29.290Z,1007.79
2023-05-09T09:06:30.241Z,1007.74
2023-05-09T09:07:31.179Z,1007.69
2023-05-09T09:08:29.217Z,1007.65
2023-05-09T09:09:29.208Z,1007.66
2023-05-09T09:10:29.216Z,1007.59
2023-05-09T09:11:29.173Z,1007.72
2023-05-09T09:12:29.172Z,1007.53
2023-05-09T09:13:29.254Z,1007.56
2023-05-09T09:14:29.134Z,1007.52
2023-05-09T09:15:29.146Z,1007.55
2023-05-09T09:16:29.203Z,1007.49
2023-05-09T09:17:29.157Z,1007.57
2023-05-09T09:18:29.254Z,1007.54
2023-05-09T09:19:29.089Z,1007.55
2023-05-09T09:20:29.084Z,1007.53
2023-05-09T09:21:29.077Z,1007.55
2023-05-09T09:22:29.061Z,1007.53
2023-05-09T09:23:29.048Z,1007.46
2023-05-09T09:24:29.029Z,1007.45
2023-05-09T09:25:29.049Z,1007.52
2023-05-09T09:26:29.018Z,1007.41
2023-05-09T09:27:29.008Z,1007.46
2023-05-09T09:28:29.004Z,1007.43
2023-05-09T09:29:28.998Z,1007.45
2023-05-09T09:30:29.009Z,1007.40
2023-05-09T09:31:29.004Z,1007.41
2023-05-09T09:32:28.964Z,1007.39
2023-05-09T09:33:28.961Z,1007.41
2023-05-09T09:34:29.042Z,1007.37
2023-05-09T09:35:28.913Z,1007.37
2023-05-09T09:36:28.941Z,1007.27
2023-05-09T09:37:28.892Z,1007.26
2023-05-09T09:38:28.875Z,1007.33
2023-05-09T09:39:28.880Z,1007.27
2023-05-09T09:40:28.857Z,1007.33
2023-05-09T09:41:28.907Z,1007.29
2023-05-09T09:42:28.836Z,1007.27
2023-05-09T09:43:28.840Z,1007.38
2023-05-09T09:44:28.811Z,1007.31
2023-05-09T09:45:28.818Z,1007.29
2023-05-09T09:46:28.857Z,1007.30
2023-05-09T09:47:28.879Z,1007.28
2023-05-09T09:48:28.768Z,1007.25
2023-05-09T09:49:28.795Z,1007.23
2023-05-09T09:50:28.860Z,1007.20
2023-05-09T09:51:28.777Z,1007.20
2023-05-09T09:52:28.746Z,1007.22
2023-05-09T09:53:28.726Z,1007.29
2023-05-09T09:54:28.706Z,1007.26
2023-05-09T09:55:28.709Z,1007.27
2023-05-09T09:56:28.717Z,1007.21
2023-05-09T09:57:28.699Z,1007.18
2023-05-09T09:58:28.673Z,1007.13
2023-05-09T09:59:28.647Z,1007.18
2023-05-09T10:00:28.668Z,1007.12
2023-05-09T10:01:28.675Z,1007.11
2023-05-09T10:02:28.736Z,1007.03
2023-05-09T10:03:28.665Z,1007.07
2023-05-09T10:04:28.598Z,1007.13
2023-05-09T10:05:28.586Z,1007.06
2023-05-09T10:06:28.588Z,1006.97
2023-05-09T10:07:28.574Z,1007.06
2023-05-09T10:08:28.576Z,1007.07
2023-05-09T10:09:28.551Z,1006.95
2023-05-09T10:10:28.529Z,1006.98
2023-05-09T10:11:28.520Z,1006.96
2023-05-09T10:12:28.520Z,1006.89
2023-05-09T10:13:28.594Z,1006.91
2023-05-09T10:14:28.488Z,1006.94
2023-05-09T10:15:31.621Z,1006.94
2023-05-09T10:16:42.680Z,1006.88
2023-05-09T10:17:29.657Z,1006.87
2023-05-09T10:18:28.977Z,1006.89
2023-05-09T10:19:28.470Z,1006.87
2023-05-09T10:20:28.428Z,1006.91
2023-05-09T10:21:28.439Z,1006.85
2023-05-09T10:22:28.515Z,1006.84
2023-05-09T10:23:28.400Z,1006.81
2023-05-09T10:24:28.402Z,1006.76
2023-05-09T10:25:28.381Z,1006.77
2023-05-09T10:26:28.364Z,1006.80
2023-05-09T10:27:28.358Z,1006.78
2023-05-09T10:28:28.326Z,1006.79
2023-05-09T10:29:28.333Z,1006.78
2023-05-09T10:30:28.345Z,1006.76
2023-05-09T10:31:28.382Z,1006.70
2023-05-09T10:32:28.306Z,1006.72
2023-05-09T10:33:28.275Z,1006.74
2023-05-09T10:34:28.280Z,1006.74
2023-05-09T10:35:28.268Z,1006.68
2023-05-09T10:36:28.241Z,1006.64
2023-05-09T10:37:28.240Z,1006.66
2023-05-09T10:38:28.297Z,1006.59
2023-05-09T10:39:28.230Z,1006.67
2023-05-09T10:40:28.216Z,1006.66
2023-05-09T10:41:28.223Z,1006.53
2023-05-09T10:42:28.176Z,1006.51
2023-05-09T10:43:28.174Z,1006.44
2023-05-09T10:44:28.149Z,1006.40
2023-05-09T10:45:28.158Z,1006.41
2023-05-09T10:46:28.139Z,1006.36
2023-05-09T10:47:28.201Z,1006.33
2023-05-09T10:48:28.117Z,1006.33
2023-05-09T10:49:28.095Z,1006.41
2023-05-09T10:50:28.091Z,1006.35
2023-05-09T10:51:28.103Z,1006.31
2023-05-09T10:52:28.058Z,1006.27
2023-05-09T10:53:28.049Z,1006.31
2023-05-09T10:54:30.677Z,1006.36
2023-05-09T10:55:28.039Z,1006.25
2023-05-09T10:56:28.032Z,1006.22
2023-05-09T10:57:28.002Z,1006.23
2023-05-09T10:58:28.011Z,1006.16
2023-05-09T10:59:27.987Z,1006.16
2023-05-09T11:00:27.978Z,1006.20
2023-05-09T11:01:28.052Z,1006.19
2023-05-09T11:02:28.021Z,1006.13
2023-05-09T11:03:28.002Z,1006.17
2023-05-09T11:04:27.941Z,1006.13
2023-05-09T11:05:27.919Z,1006.10
2023-05-09T11:06:27.918Z,1006.08
2023-05-09T11:07:27.956Z,1006.10
2023-05-09T11:08:27.905Z,1006.09
2023-05-09T11:09:27.883Z,1006.01
2023-05-09T11:10:27.998Z,1005.99
2023-05-09T11:11:27.865Z,1006.03
2023-05-09T11:12:27.872Z,1005.98
2023-05-09T11:13:27.937Z,1005.98
2023-05-09T11:14:27.828Z,1005.96
2023-05-09T11:15:28.114Z,1005.92
2023-05-09T11:16:27.844Z,1005.91
2023-05-09T11:17:27.815Z,1005.85
2023-05-09T11:18:27.800Z,1005.84
2023-05-09T11:19:27.779Z,1005.84
2023-05-09T11:20:27.759Z,1005.84
2023-05-09T11:21:27.756Z,1005.84
2023-05-09T11:22:27.755Z,1005.84
2023-05-09T11:23:27.716Z,1005.83
2023-05-09T11:24:27.713Z,1005.80
2023-05-09T11:25:27.711Z,1005.79
2023-05-09T11:26:27.814Z,1005.78
2023-05-09T11:27:27.723Z,1005.74
2023-05-09T11:28:27.671Z,1005.78
2023-05-09T11:29:27.666Z,1005.70
2023-05-09T11:30:27.647Z,1005.73
2023-05-09T11:31:27.675Z,1005.68
2023-05-09T11:32:27.665Z,1005.64
2023-05-09T11:33:27.616Z,1005.65
2023-05-09T11:34:27.591Z,1005.62
2023-05-09T11:35:27.606Z,1005.58
2023-05-09T11:36:27.577Z,1005.56
2023-05-09T11:37:27.633Z,1005.48
2023-05-09T11:38:27.562Z,1005.44
2023-05-09T11:39:27.551Z,1005.51
2023-05-09T11:40:27.539Z,1005.53
2023-05-09T11:41:27.532Z,1005.50
2023-05-09T11:42:27.634Z,1005.53
2023-05-09T11:43:27.521Z,1005.46
2023-05-09T11:44:27.487Z,1005.40
2023-05-09T11:45:27.489Z,1005.41
2023-05-09T11:46:27.617Z,1005.44
2023-05-09T11:47:27.484Z,1005.38
2023-05-09T11:48:27.455Z,1005.41
2023-05-09T11:49:27.449Z,1005.38
2023-05-09T11:50:27.427Z,1005.37
2023-05-09T11:51:27.420Z,1005.37
2023-05-09T11:52:27.401Z,1005.36
2023-05-09T11:53:27.398Z,1005.30
2023-05-09T11:54:27.385Z,1005.36
2023-05-09T11:55:27.370Z,1005.28
2023-05-09T11:56:27.362Z,1005.28
2023-05-09T11:57:27.362Z,1005.28
2023-05-09T11:58:27.352Z,1005.20
2023-05-09T11:59:27.330Z,1005.12
2023-05-09T12:00:27.313Z,1005.13
2023-05-09T12:01:27.296Z,1005.13
2023-05-09T12:02:27.385Z,1005.13
2023-05-09T12:03:27.433Z,1005.17
2023-05-09T12:04:27.304Z,1005.14
2023-05-09T12:05:27.246Z,1005.13
2023-05-09T12:06:27.231Z,1005.15
2023-05-09T12:07:27.223Z,1005.09